Aeroporto :
LOGIN :

Iscrizione | Disclaimer

   EN    FR    IT 

 










Sommario :    VFR   VFR Marginale   IFR   IFR Intensivo   IFR Molto Intensivo
Visibilità : 
Base nubi : 
>= 8 km
>= 3000ft
5 / 8 km
1000 / 3000 ft
1500m / 5 km
500 / 1000 ft
800 / 1500m
200 / 500 ft
< 800m
< 200 ft
Simboli :   Temporali  Nebbia  Neve Forte  Precipitazioni Forti  Vento > 20 kt
SIGMETs :   Varie  Temporali  Ghiacco  Turbolenza  Onda orograficha  Ceneri Vulcaniche






- Altitudine del aeroporto : 17 ft
- Codice IATA : GRQ


EHGG - Groningen Eelde

ULTIMO METAR :
  • 220455Z AUTO 22002KT 9999 NSC 09/08 Q1016 NOSIG

METARs OBSOLETI :
  • 220425Z AUTO VRB02KT 9999 NCD 09/08 Q1016 NOSIG
  • 220355Z AUTO 33005KT 300V360 9999 NSC 11/08 Q1015 NOSIG
  • 220325Z AUTO 32005KT 9999 NSC 10/08 Q1015
  • 220255Z AUTO 32005KT 300V360 9999 NCD 10/08 Q1015
  • 220225Z AUTO VRB02KT 9999 NCD 10/09 Q1015

TAF TAF EHGG
Valido dal 22 a 00 ore il 23 a 06 ore UTC


212254Z 2200/2306 33004KT 9999 SCT030
PROB30 2201/2206 4000 MIFG
BECMG 2206/2208 36010KT
BECMG 2218/2220 33003KT



MetMap, La meteo Aeronautica in un colpo d'occhio ! - Copyright ORBIFLY Dicembre 2007 - Disclaimer

ORBIFLY MET'MAP TEAM :

Programmazione e sviluppo : Alexandra Zaïnal
Concezione : Baudouin d'Aumeries
Aiuto per la programmazione : Marc-Olivier Méhu
Supporto tecnico e logistico : Manuel Goepfert
Aiuto per la traduzione : Arnaldo La Scala

Contatto : metmap@orbifly.com




FONTI E CREDITI :

   NOAA